Time;durP1;ratioP1;P1;durP2;ratioP2;P2;SDS_P1;SDS_P2;PMS_P1;PMS_P2;Temp;Humidity;BMP_temperature;BMP_pressure;BME280_temperature;BME280_humidity;BME280_pressure;Samples;Min_cycle;Max_cycle;Signal;HPM_P1;HPM_P2
2023/02/16 00:00:28;;;;;;;108.32;42.72;;;;;;;5.30;84.94;102577.09;6100742;19;20031;-76
2023/02/16 00:02:33;;;;;;;102.18;43.35;;;;;;;5.28;84.88;102582.28;6103048;19;20011;-76
2023/02/16 00:04:39;;;;;;;118.28;46.70;;;;;;;5.29;85.28;102585.75;6105909;19;20003;-75
2023/02/16 00:06:44;;;;;;;110.95;43.63;;;;;;;5.36;84.91;102582.34;6105110;19;20598;-75
2023/02/16 00:08:51;;;;;;;109.95;45.58;;;;;;;5.35;84.84;102585.84;6100125;19;20022;-75
2023/02/16 00:15:44;;;;;;;109.65;43.92;;;;;;;5.24;85.22;102577.91;6101982;19;20011;-75
2023/02/16 00:17:49;;;;;;;111.05;45.75;;;;;;;5.22;85.45;102577.03;6098961;19;20018;-75
2023/02/16 00:19:54;;;;;;;109.35;43.60;;;;;;;5.18;85.62;102572.63;6100964;19;20014;-75
2023/02/16 00:22:01;;;;;;;109.68;42.85;;;;;;;5.27;85.72;102583.16;6103800;19;20006;-75
2023/02/16 00:24:07;;;;;;;112.32;44.03;;;;;;;5.27;85.48;102577.94;6103697;19;20483;-74
2023/02/16 00:26:17;;;;;;;106.03;47.33;;;;;;;5.23;85.48;102578.75;6104126;19;20014;-75
2023/02/16 00:28:24;;;;;;;108.70;44.72;;;;;;;5.21;85.50;102571.78;6098276;19;20090;-76
2023/02/16 00:30:30;;;;;;;112.85;47.55;;;;;;;5.24;85.70;102569.25;6103188;19;20011;-76
2023/02/16 00:32:35;;;;;;;120.22;45.38;;;;;;;5.20;85.40;102570.91;6101232;19;20070;-73
2023/02/16 00:34:43;;;;;;;104.53;43.67;;;;;;;5.19;85.24;102574.41;6098330;19;20006;-74
2023/02/16 00:36:50;;;;;;;117.45;46.63;;;;;;;5.24;85.55;102577.91;6101300;19;20108;-73
2023/02/16 00:38:55;;;;;;;111.90;43.38;;;;;;;5.27;85.13;102562.31;6101713;19;20007;-73
2023/02/16 00:41:02;;;;;;;94.60;42.75;;;;;;;5.19;85.57;102574.41;6102406;19;20074;-73
2023/02/16 00:43:08;;;;;;;102.53;42.67;;;;;;;5.12;85.49;102569.97;6099533;19;20015;-74
2023/02/16 00:45:23;;;;;;;102.88;43.08;;;;;;;5.14;85.71;102559.56;6100884;19;20480;-74
2023/02/16 00:47:33;;;;;;;100.53;43.50;;;;;;;5.20;85.65;102555.28;6099067;19;20126;-74
2023/02/16 00:49:38;;;;;;;100.65;42.10;;;;;;;5.26;85.21;102560.53;6095247;19;20014;-76
2023/02/16 00:51:44;;;;;;;101.00;41.50;;;;;;;5.17;85.43;102564.81;6101118;19;20506;-75
2023/02/16 00:53:51;;;;;;;97.68;43.47;;;;;;;5.16;85.48;102566.56;6096212;19;20453;-75
2023/02/16 00:55:56;;;;;;;105.55;44.78;;;;;;;5.16;85.42;102558.72;6103104;19;20025;-75
2023/02/16 00:58:08;;;;;;;99.30;45.20;;;;;;;5.14;85.42;102555.22;6099722;19;20023;-74
2023/02/16 01:00:22;;;;;;;105.40;42.97;;;;;;;5.15;85.45;102553.50;6102270;19;20010;-72
2023/02/16 01:02:30;;;;;;;102.20;41.72;;;;;;;5.15;85.41;102553.50;6092475;19;20054;-75
2023/02/16 01:04:36;;;;;;;92.53;38.95;;;;;;;5.19;85.25;102555.28;6096575;19;23051;-76
2023/02/16 01:11:26;;;;;;;96.70;41.65;;;;;;;5.14;85.41;102541.34;6101753;19;20100;-76
2023/02/16 01:13:35;;;;;;;93.63;40.63;;;;;;;5.12;85.17;102549.13;6099639;19;20013;-75
2023/02/16 01:15:40;;;;;;;98.18;39.83;;;;;;;5.16;85.63;102548.31;6099548;19;20015;-76
2023/02/16 01:17:48;;;;;;;88.63;38.78;;;;;;;5.18;85.48;102545.69;6097314;19;20040;-76
2023/02/16 01:19:53;;;;;;;86.65;37.38;;;;;;;5.13;85.55;102543.03;6099660;19;20211;-74
2023/02/16 01:22:01;;;;;;;79.82;38.75;;;;;;;5.16;85.53;102544.81;6102866;19;20011;-74
2023/02/16 01:24:06;;;;;;;91.57;39.28;;;;;;;5.24;85.60;102551.00;6102422;19;20438;-73
2023/02/16 01:26:16;;;;;;;87.78;38.03;;;;;;;5.28;85.12;102545.78;6101847;19;20014;-73
2023/02/16 01:28:24;;;;;;;93.05;40.83;;;;;;;5.27;84.99;102551.88;6095641;19;20126;-73
2023/02/16 01:30:30;;;;;;;90.80;39.47;;;;;;;5.29;84.92;102544.06;6103066;19;20023;-75
2023/02/16 01:32:35;;;;;;;82.95;37.95;;;;;;;5.27;84.84;102545.81;6098954;19;20018;-72
2023/02/16 01:34:42;;;;;;;91.43;39.53;;;;;;;5.24;85.44;102546.66;6101695;19;20006;-73
2023/02/16 01:36:49;;;;;;;80.45;37.08;;;;;;;5.31;84.72;102533.66;6101421;19;20366;-76
2023/02/16 01:38:54;;;;;;;86.57;38.88;;;;;;;5.30;84.66;102535.41;6100648;19;20062;-75
2023/02/16 01:41:21;;;;;;;79.82;39.30;;;;;;;5.34;84.61;102534.53;6099566;19;20522;-75
2023/02/16 01:43:30;;;;;;;87.68;40.03;;;;;;;5.33;84.74;102534.56;6099660;19;20451;-74
2023/02/16 01:45:43;;;;;;;83.93;40.05;;;;;;;5.30;84.86;102534.53;6102330;19;20014;-75
2023/02/16 01:47:54;;;;;;;79.20;38.30;;;;;;;5.33;84.71;102531.94;6097229;19;20608;-74
2023/02/16 01:50:03;;;;;;;78.35;37.20;;;;;;;5.34;84.63;102541.50;6101341;19;20288;-76
2023/02/16 01:52:20;;;;;;;83.65;37.38;;;;;;;5.41;84.27;102532.88;6101508;19;20014;-74
2023/02/16 01:54:36;;;;;;;83.55;36.70;;;;;;;5.33;84.68;102534.56;6096851;19;20014;-75
2023/02/16 01:56:52;;;;;;;78.95;36.13;;;;;;;5.32;84.79;102525.88;6102413;19;20600;-76
2023/02/16 01:59:02;;;;;;;74.68;34.35;;;;;;;5.32;84.32;102538.00;6102427;19;20070;-76
2023/02/16 02:01:38;;;;;;;72.95;35.33;;;;;;;5.33;84.43;102535.41;6103362;19;20356;-74
2023/02/16 02:06:05;;;;;;;75.05;36.50;;;;;;;5.29;84.70;102533.63;6103332;19;20014;-75
2023/02/16 02:08:27;;;;;;;75.32;35.80;;;;;;;5.29;84.79;102528.41;6102828;19;20014;-73
2023/02/16 02:10:41;;;;;;;77.30;35.58;;;;;;;5.33;84.53;102524.13;6093261;19;20495;-73
2023/02/16 02:12:53;;;;;;;69.60;34.15;;;;;;;5.30;84.33;102534.53;6099505;19;20093;-73
2023/02/16 02:14:58;;;;;;;71.03;34.58;;;;;;;5.28;84.49;102530.16;6078787;19;20436;-73
2023/02/16 02:17:08;;;;;;;82.65;37.92;;;;;;;5.36;83.96;102524.13;6094115;19;20010;-73
2023/02/16 02:19:13;;;;;;;77.10;35.95;;;;;;;5.26;84.31;102531.00;6103374;19;20019;-72
2023/02/16 02:24:21;;;;;;;73.72;34.28;;;;;;;5.25;84.42;102514.50;6100870;19;20036;-73
2023/02/16 02:26:57;;;;;;;73.82;33.75;;;;;;;5.29;84.34;102515.38;6099013;19;20520;-73
2023/02/16 02:29:17;;;;;;;73.78;35.53;;;;;;;5.36;84.18;102513.72;6107152;19;20110;-73
2023/02/16 02:31:38;;;;;;;74.35;33.70;;;;;;;5.37;84.26;102505.91;6103174;19;20010;-74
2023/02/16 02:33:56;;;;;;;61.97;31.55;;;;;;;5.39;83.73;102503.31;6103998;19;20011;-74
2023/02/16 02:36:18;;;;;;;75.22;34.40;;;;;;;5.39;83.44;102496.34;6104858;19;20373;-73
2023/02/16 02:38:29;;;;;;;75.87;34.80;;;;;;;5.37;83.93;102485.06;6099138;19;20014;-75
2023/02/16 02:40:49;;;;;;;79.35;33.20;;;;;;;5.40;83.71;102489.44;6108232;19;20042;-74
2023/02/16 02:43:06;;;;;;;63.55;33.65;;;;;;;5.48;83.40;102482.53;6105326;19;20006;-74
2023/02/16 02:45:20;;;;;;;67.22;32.65;;;;;;;5.50;83.25;102481.69;6105738;19;20019;-74
2023/02/16 02:47:25;;;;;;;73.05;35.03;;;;;;;5.53;83.40;102482.53;6103589;19;20010;-73
2023/02/16 02:49:33;;;;;;;75.07;32.97;;;;;;;5.52;83.58;102473.84;6104387;19;20053;-74
2023/02/16 02:51:39;;;;;;;73.88;35.17;;;;;;;5.52;83.62;102483.41;6105682;19;20010;-74
2023/02/16 03:00:39;;;;;;;69.72;31.35;;;;;;;5.54;83.77;102485.16;6103450;19;20007;-73
2023/02/16 03:01:20;;;;;;;70.68;32.83;;;;;;;5.58;83.41;102481.75;6101930;19;20126;-74
2023/02/16 03:03:30;;;;;;;68.68;34.95;;;;;;;5.59;83.09;102477.38;6101243;19;20100;-74
2023/02/16 03:05:43;;;;;;;68.80;31.50;;;;;;;5.58;83.43;102473.00;6103640;19;20309;-74
2023/02/16 03:07:56;;;;;;;62.78;31.70;;;;;;;5.58;83.33;102473.00;6105059;19;20585;-73
2023/02/16 03:12:44;;;;;;;63.05;30.90;;;;;;;5.58;83.03;102470.41;6099782;19;20047;-73
2023/02/16 03:14:51;;;;;;;68.78;30.90;;;;;;;5.58;82.91;102479.13;6103596;19;20034;-73
2023/02/16 03:30:58;;;;;;;66.55;32.42;;;;;;;5.75;82.23;102474.00;6103327;19;20055;-73
2023/02/16 03:33:03;;;;;;;65.40;32.75;;;;;;;5.70;82.05;102476.56;6100299;19;20002;-73
2023/02/16 03:35:11;;;;;;;58.25;31.73;;;;;;;5.72;81.80;102474.00;6102082;19;20499;-74
2023/02/16 03:37:17;;;;;;;63.88;32.92;;;;;;;5.71;81.87;102473.13;6101968;19;20015;-74
2023/02/16 03:39:22;;;;;;;65.32;31.45;;;;;;;5.70;82.13;102471.34;6101194;19;20016;-73
2023/02/16 03:41:28;;;;;;;65.25;32.80;;;;;;;5.69;82.13;102472.25;6102229;19;20337;-73
2023/02/16 03:43:33;;;;;;;65.90;32.45;;;;;;;5.68;82.01;102467.88;6102916;19;20031;-74
2023/02/16 03:45:45;;;;;;;61.53;30.98;;;;;;;5.72;81.84;102467.03;6104545;19;20007;-74
2023/02/16 03:47:52;;;;;;;69.60;33.78;;;;;;;5.71;82.23;102461.78;6098563;19;20011;-74
2023/02/16 03:50:00;;;;;;;62.30;30.38;;;;;;;5.68;82.46;102456.56;6099055;19;20023;-73
2023/02/16 03:52:06;;;;;;;62.17;33.10;;;;;;;5.68;82.36;102452.22;6101099;19;20138;-74
2023/02/16 03:54:11;;;;;;;63.20;31.50;;;;;;;5.70;82.40;102447.03;6100152;19;20094;-73
2023/02/16 03:56:16;;;;;;;65.88;30.83;;;;;;;5.66;82.71;102450.47;6103835;19;20074;-74
2023/02/16 03:58:25;;;;;;;61.20;33.42;;;;;;;5.67;82.49;102455.69;6098965;19;20380;-73
2023/02/16 04:00:30;;;;;;;61.42;31.45;;;;;;;5.67;82.59;102460.91;6099454;19;20062;-74
2023/02/16 04:02:35;;;;;;;65.97;31.58;;;;;;;5.72;82.34;102464.41;6099907;19;20456;-73
2023/02/16 04:04:43;;;;;;;59.55;30.38;;;;;;;5.70;82.60;102468.75;6107290;19;20043;-73
2023/02/16 04:06:48;;;;;;;64.43;31.42;;;;;;;5.71;82.61;102470.50;6108129;19;20054;-73
2023/02/16 04:08:53;;;;;;;56.25;32.45;;;;;;;5.72;82.45;102472.25;6098171;19;20257;-73
2023/02/16 04:10:59;;;;;;;63.38;31.13;;;;;;;5.71;82.47;102490.47;6075967;19;20090;-74
2023/02/16 04:13:01;;;;;;;63.22;31.42;;;;;;;5.73;82.56;102473.13;6097171;19;20439;-74
2023/02/16 04:15:09;;;;;;;62.00;32.53;;;;;;;5.75;82.68;102480.97;6089711;19;20357;-74
2023/02/16 04:17:14;;;;;;;65.07;31.63;;;;;;;5.72;82.75;102472.25;6097615;19;20087;-76
2023/02/16 04:19:20;;;;;;;59.85;31.70;;;;;;;5.72;82.67;102474.00;6088261;19;20379;-74
2023/02/16 04:21:27;;;;;;;67.70;31.92;;;;;;;5.70;83.11;102476.56;6079179;19;20011;-73
2023/02/16 04:23:32;;;;;;;58.40;30.85;;;;;;;5.69;83.01;102472.25;6097173;19;20175;-74
2023/02/16 04:25:41;;;;;;;61.17;32.40;;;;;;;5.71;83.06;102475.72;6096109;19;20015;-75
2023/02/16 04:27:46;;;;;;;58.03;31.10;;;;;;;5.71;83.02;102467.91;6100927;19;20035;-75
2023/02/16 04:29:51;;;;;;;62.80;32.50;;;;;;;5.71;83.05;102467.91;6101070;19;20010;-74
2023/02/16 04:31:56;;;;;;;64.70;34.38;;;;;;;5.72;83.08;102466.16;6099807;19;20542;-75
2023/02/16 04:34:02;;;;;;;61.45;31.83;;;;;;;5.72;82.93;102466.16;6098946;19;20471;-73
2023/02/16 04:36:11;;;;;;;60.97;31.90;;;;;;;5.74;83.01;102464.44;6101200;19;20010;-73
2023/02/16 04:38:18;;;;;;;63.47;32.50;;;;;;;5.75;82.76;102462.69;6098953;19;20007;-75
2023/02/16 04:40:24;;;;;;;58.63;30.73;;;;;;;5.73;83.13;102457.47;6092626;19;20452;-73
2023/02/16 04:42:28;;;;;;;65.07;33.65;;;;;;;5.69;83.41;102461.81;6099145;19;20017;-73
2023/02/16 04:44:33;;;;;;;63.40;31.63;;;;;;;5.71;82.96;102461.78;6100042;19;20579;-75
2023/02/16 04:46:40;;;;;;;62.15;30.63;;;;;;;5.75;82.82;102465.31;6094816;19;20007;-75
2023/02/16 04:48:45;;;;;;;65.40;31.45;;;;;;;5.71;83.16;102462.69;6083650;19;20326;-77
2023/02/16 04:50:50;;;;;;;64.85;32.00;;;;;;;5.69;83.15;102459.19;6081495;19;20355;-73
2023/02/16 04:52:55;;;;;;;63.22;31.55;;;;;;;5.67;83.22;102458.31;6096426;19;20539;-73
2023/02/16 04:55:04;;;;;;;63.50;34.00;;;;;;;5.62;83.58;102454.78;6103327;19;20022;-73
2023/02/16 04:57:09;;;;;;;69.57;33.28;;;;;;;5.67;83.30;102457.44;6094377;19;20011;-75
2023/02/16 04:59:15;;;;;;;60.15;31.38;;;;;;;5.67;83.62;102458.31;6098619;19;20006;-73
2023/02/16 05:01:21;;;;;;;66.07;33.10;;;;;;;5.71;83.00;102454.88;6093296;19;20408;-74
2023/02/16 05:03:27;;;;;;;60.78;32.20;;;;;;;5.73;83.02;102450.50;6099487;19;20038;-74
2023/02/16 05:05:33;;;;;;;65.47;33.42;;;;;;;5.72;83.11;102450.50;6078257;19;20695;-73
2023/02/16 05:07:42;;;;;;;63.75;33.35;;;;;;;5.72;83.21;102446.16;6095837;19;20687;-74
2023/02/16 05:09:46;;;;;;;68.97;33.85;;;;;;;5.72;83.25;102446.16;6100328;19;20062;-74
2023/02/16 05:16:38;;;;;;;71.65;35.88;;;;;;;5.74;83.27;102440.97;6093265;19;20014;-74
2023/02/16 05:18:46;;;;;;;69.90;33.40;;;;;;;5.81;82.96;102437.50;6097557;19;20258;-74
2023/02/16 05:23:09;;;;;;;71.00;34.50;;;;;;;5.78;83.41;102440.09;6076585;19;20240;-76
2023/02/16 05:25:16;;;;;;;64.57;34.08;;;;;;;5.83;83.17;102435.78;6099702;19;20010;-76
2023/02/16 05:27:27;;;;;;;72.85;33.65;;;;;;;5.83;83.05;102430.56;6091368;19;20352;-74
2023/02/16 05:29:32;;;;;;;73.78;33.03;;;;;;;5.84;83.24;102440.13;6098087;19;20021;-76
2023/02/16 05:31:38;;;;;;;67.25;34.05;;;;;;;5.79;83.62;102438.34;6096046;19;20022;-76
2023/02/16 05:33:44;;;;;;;66.10;32.13;;;;;;;5.92;82.91;102442.78;6102010;19;20014;-76
2023/02/16 05:35:50;;;;;;;69.20;33.80;;;;;;;5.89;82.97;102442.75;6077173;19;20076;-75
2023/02/16 05:37:55;;;;;;;66.10;33.58;;;;;;;5.86;83.38;102442.75;6100008;19;20014;-76
2023/02/16 05:40:03;;;;;;;76.30;32.25;;;;;;;5.89;83.28;102448.84;6100095;19;20010;-76
2023/02/16 05:42:08;;;;;;;69.00;33.30;;;;;;;5.91;83.60;102441.91;6098361;19;20014;-73
2023/02/16 05:44:19;;;;;;;67.18;33.47;;;;;;;5.91;84.66;102446.25;6078038;19;20011;-73
2023/02/16 05:46:25;;;;;;;70.88;33.83;;;;;;;5.93;84.13;102432.38;6078643;19;20018;-75
2023/02/16 05:48:30;;;;;;;65.80;33.28;;;;;;;5.92;84.42;102437.56;6096334;19;20007;-76
2023/02/16 05:50:35;;;;;;;69.93;34.78;;;;;;;5.92;84.39;102422.78;6093171;19;20042;-75
2023/02/16 05:52:41;;;;;;;67.50;33.63;;;;;;;5.91;84.83;102443.66;6076118;19;20024;-76
2023/02/16 05:54:45;;;;;;;63.63;33.38;;;;;;;5.94;84.67;102446.28;6083530;19;20082;-76
2023/02/16 05:56:52;;;;;;;73.78;36.25;;;;;;;5.93;84.75;102453.25;6084334;19;20364;-75
2023/02/16 05:58:57;;;;;;;67.32;35.00;;;;;;;5.91;84.84;102443.66;6080247;19;20015;-77
2023/02/16 06:01:05;;;;;;;70.63;36.25;;;;;;;5.91;84.38;102435.81;6104612;19;20027;-73
2023/02/16 06:03:10;;;;;;;66.93;34.08;;;;;;;5.90;84.82;102444.53;6104785;19;20015;-74
2023/02/16 06:05:15;;;;;;;71.32;35.90;;;;;;;5.90;84.61;102439.31;6105533;19;20370;-73
2023/02/16 06:07:20;;;;;;;70.00;37.08;;;;;;;5.89;84.39;102447.97;6098418;19;20447;-74
2023/02/16 06:09:24;;;;;;;66.32;34.13;;;;;;;5.87;84.89;102439.25;6100468;19;20014;-74
2023/02/16 06:11:38;;;;;;;69.97;34.40;;;;;;;5.89;84.83;102435.81;6103485;19;20150;-74
2023/02/16 06:13:44;;;;;;;68.00;35.95;;;;;;;5.92;84.66;102442.78;6101062;19;20574;-74
2023/02/16 06:15:53;;;;;;;68.22;36.75;;;;;;;5.93;84.70;102441.94;6102836;19;20010;-76
2023/02/16 06:18:02;;;;;;;64.25;32.70;;;;;;;5.92;84.80;102446.28;6104411;19;20003;-77
2023/02/16 06:20:09;;;;;;;63.42;33.45;;;;;;;5.96;84.49;102443.72;6105626;19;20039;-76
2023/02/16 06:22:13;;;;;;;60.40;32.90;;;;;;;5.95;84.49;102448.06;6106942;19;20014;-76
2023/02/16 06:24:18;;;;;;;70.45;35.97;;;;;;;5.99;84.65;102438.50;6108594;19;20014;-75
2023/02/16 06:26:23;;;;;;;64.88;33.55;;;;;;;6.03;84.47;102442.84;6105771;19;20027;-77
2023/02/16 06:28:28;;;;;;;75.57;34.85;;;;;;;5.99;84.45;102435.88;6082155;19;20078;-76
2023/02/16 06:30:34;;;;;;;69.80;36.40;;;;;;;5.99;84.63;102439.38;6099955;19;20019;-76
2023/02/16 06:32:41;;;;;;;74.47;36.55;;;;;;;6.03;84.24;102443.75;6100243;19;20075;-77
2023/02/16 06:34:51;;;;;;;71.75;34.50;;;;;;;6.01;84.44;102453.31;6101708;19;20332;-76
2023/02/16 06:36:56;;;;;;;69.13;33.38;;;;;;;6.01;84.50;102442.84;6099443;19;20389;-76
2023/02/16 06:39:01;;;;;;;74.65;34.70;;;;;;;6.01;84.43;102450.69;6099948;19;20673;-77
2023/02/16 06:41:06;;;;;;;70.25;35.85;;;;;;;6.03;84.36;102446.34;6101375;19;20014;-76
2023/02/16 06:43:11;;;;;;;71.85;35.10;;;;;;;6.00;84.63;102451.53;6103770;19;20043;-76
2023/02/16 06:45:17;;;;;;;74.47;34.67;;;;;;;6.00;84.47;102456.75;6078659;19;20031;-77
2023/02/16 06:47:22;;;;;;;67.75;35.80;;;;;;;5.99;84.84;102460.25;6099944;19;20159;-76
2023/02/16 06:49:28;;;;;;;60.63;33.80;;;;;;;5.98;85.21;102461.13;6058956;19;20027;-75
2023/02/16 06:51:35;;;;;;;73.15;36.85;;;;;;;6.03;84.85;102468.94;6100470;19;20019;-75
2023/02/16 06:53:41;;;;;;;73.63;37.25;;;;;;;6.07;84.89;102468.09;6100153;19;20015;-75
2023/02/16 06:55:48;;;;;;;79.45;35.67;;;;;;;6.09;84.43;102472.47;6098753;19;20027;-76
2023/02/16 06:57:53;;;;;;;66.95;34.53;;;;;;;6.08;85.00;102470.75;6100733;19;21436;-76
2023/02/16 06:59:58;;;;;;;69.05;34.08;;;;;;;6.06;85.28;102464.63;6098823;19;20006;-75
2023/02/16 07:02:03;;;;;;;67.10;35.60;;;;;;;6.07;85.00;102468.97;6101311;19;20467;-72
2023/02/16 07:04:09;;;;;;;71.68;34.67;;;;;;;6.14;85.10;102467.28;6098808;19;20086;-75
2023/02/16 07:06:14;;;;;;;66.80;36.08;;;;;;;6.13;85.35;102473.34;6103141;19;20011;-73
2023/02/16 07:08:22;;;;;;;74.65;37.08;;;;;;;6.15;85.07;102475.09;6099605;19;20013;-76
2023/02/16 07:10:27;;;;;;;69.72;33.58;;;;;;;6.20;84.69;102475.13;6077187;19;20007;-76
2023/02/16 07:12:51;;;;;;;67.57;32.10;;;;;;;6.23;84.73;102474.25;6099821;19;20105;-77
2023/02/16 07:14:56;;;;;;;67.90;35.47;;;;;;;6.26;84.82;102471.66;6100973;19;20014;-76
2023/02/16 07:17:03;;;;;;;69.25;34.47;;;;;;;6.26;84.87;102469.91;6077792;19;20022;-75
2023/02/16 07:19:10;;;;;;;75.38;35.90;;;;;;;6.33;84.48;102470.81;6102351;19;20015;-77
2023/02/16 07:21:17;;;;;;;68.32;36.60;;;;;;;6.31;84.12;102473.41;6099436;19;20018;-75
2023/02/16 07:23:24;;;;;;;70.07;33.35;;;;;;;6.34;84.29;102467.34;6101007;19;20018;-75
2023/02/16 07:25:29;;;;;;;64.57;34.22;;;;;;;6.38;84.14;102471.72;6100932;19;20478;-76
2023/02/16 07:27:37;;;;;;;72.50;35.72;;;;;;;6.43;83.66;102475.22;6105029;19;20027;-76
2023/02/16 07:29:43;;;;;;;68.30;33.63;;;;;;;6.47;83.55;102483.91;6100614;19;20029;-76
2023/02/16 07:31:52;;;;;;;71.72;35.28;;;;;;;6.46;83.80;102480.44;6104558;19;20043;-73
2023/02/16 07:33:57;;;;;;;68.22;34.88;;;;;;;6.48;83.97;102481.31;6107580;19;20338;-73
2023/02/16 07:36:02;;;;;;;65.20;36.13;;;;;;;6.45;84.01;102483.94;6107780;19;20010;-73
2023/02/16 07:38:08;;;;;;;64.53;35.25;;;;;;;6.49;83.54;102490.03;6103712;19;20082;-73
2023/02/16 07:40:19;;;;;;;64.13;35.30;;;;;;;6.47;83.74;102489.13;6106095;19;20037;-73
2023/02/16 07:42:24;;;;;;;63.75;33.70;;;;;;;6.48;83.64;102498.72;6102522;19;20039;-73
2023/02/16 07:44:29;;;;;;;75.50;36.30;;;;;;;6.48;83.61;102494.38;6103578;19;20498;-75
2023/02/16 07:46:36;;;;;;;73.32;36.45;;;;;;;6.51;83.72;102504.81;6103987;19;20598;-73
2023/02/16 07:48:41;;;;;;;76.88;35.75;;;;;;;6.55;83.50;102503.09;6103939;19;20586;-73
2023/02/16 07:50:47;;;;;;;61.95;33.83;;;;;;;6.58;83.36;102503.97;6101412;19;20587;-74
2023/02/16 07:52:52;;;;;;;71.85;36.70;;;;;;;6.57;83.42;102507.44;6099967;19;20014;-72
2023/02/16 07:54:57;;;;;;;70.70;34.45;;;;;;;6.54;83.51;102515.28;6104285;19;20086;-73
2023/02/16 07:57:05;;;;;;;67.25;34.30;;;;;;;6.52;83.60;102511.78;6103120;19;20534;-74
2023/02/16 07:59:11;;;;;;;68.70;35.30;;;;;;;6.55;83.51;102519.63;6100237;19;20011;-73
2023/02/16 08:01:16;;;;;;;63.55;34.05;;;;;;;6.57;83.73;102510.06;6103378;19;20448;-72
2023/02/16 08:03:21;;;;;;;67.93;34.47;;;;;;;6.55;84.19;102518.75;6106197;19;20081;-72
2023/02/16 08:05:26;;;;;;;72.97;35.42;;;;;;;6.54;84.78;102519.63;6099645;19;20005;-72
2023/02/16 08:07:32;;;;;;;75.43;37.83;;;;;;;6.50;85.82;102516.16;6101391;19;20010;-74
2023/02/16 08:09:41;;;;;;;75.28;36.25;;;;;;;6.47;86.30;102518.72;6102654;19;20499;-74
2023/02/16 08:11:46;;;;;;;65.75;36.00;;;;;;;6.52;86.68;102524.84;6101883;19;20007;-73
2023/02/16 08:13:54;;;;;;;78.88;40.60;;;;;;;6.50;87.13;102521.38;6102936;19;20014;-74
2023/02/16 08:16:00;;;;;;;75.05;36.60;;;;;;;6.51;87.75;102527.47;6101735;19;20014;-74
2023/02/16 08:18:05;;;;;;;68.00;37.38;;;;;;;6.52;88.37;102519.63;6099401;19;20006;-73
2023/02/16 08:20:11;;;;;;;72.00;36.83;;;;;;;6.52;88.80;102518.75;6095901;19;20007;-74
2023/02/16 08:22:16;;;;;;;74.18;37.15;;;;;;;6.49;89.20;102524.84;6099030;19;20059;-74
2023/02/16 08:24:23;;;;;;;72.97;37.63;;;;;;;6.50;89.18;102520.47;6096612;19;20017;-73
2023/02/16 08:26:30;;;;;;;72.32;35.13;;;;;;;6.46;89.48;102526.56;6098835;19;20484;-74
2023/02/16 08:28:37;;;;;;;72.60;38.35;;;;;;;6.43;89.87;102529.19;6097508;19;20011;-73
2023/02/16 08:30:52;;;;;;;76.70;34.63;;;;;;;6.43;90.22;102529.19;6099612;19;20021;-73
2023/02/16 08:32:59;;;;;;;73.10;36.20;;;;;;;6.42;90.69;102524.81;6095241;19;20035;-73
2023/02/16 08:35:05;;;;;;;79.45;40.60;;;;;;;6.43;90.33;102532.66;6099887;19;20035;-73
2023/02/16 08:37:16;;;;;;;73.00;36.90;;;;;;;6.43;90.64;102535.28;6098331;19;20014;-73
2023/02/16 08:39:23;;;;;;;85.30;39.38;;;;;;;6.42;90.96;102532.63;6097382;19;20010;-77
2023/02/16 08:41:40;;;;;;;74.25;39.75;;;;;;;6.41;91.13;102531.78;6095368;19;20022;-78
2023/02/16 08:43:46;;;;;;;88.38;43.15;;;;;;;6.43;91.22;102527.44;6098365;19;20027;-77
2023/02/16 08:45:54;;;;;;;81.38;39.30;;;;;;;6.49;91.17;102532.66;6097931;19;20006;-77
2023/02/16 08:48:01;;;;;;;73.57;36.53;;;;;;;6.50;91.16;102524.00;6099972;19;20015;-77
2023/02/16 08:50:10;;;;;;;77.55;37.17;;;;;;;6.60;90.57;102519.66;6100687;19;20476;-77
2023/02/16 08:52:16;;;;;;;68.60;37.90;;;;;;;6.64;90.67;102525.78;6100633;19;20017;-75
2023/02/16 08:54:24;;;;;;;79.90;40.60;;;;;;;6.70;90.65;102525.78;6099055;19;20010;-75
2023/02/16 08:56:31;;;;;;;80.38;40.47;;;;;;;6.71;90.52;102530.13;6098892;19;20074;-78
2023/02/16 08:58:36;;;;;;;71.65;38.85;;;;;;;6.80;90.55;102531.03;6097808;19;20020;-77
2023/02/16 09:00:42;;;;;;;75.13;39.35;;;;;;;6.86;90.49;102519.72;6096544;19;20311;-78
2023/02/16 09:02:51;;;;;;;82.05;40.65;;;;;;;6.92;90.70;102524.06;6094574;19;20035;-77
2023/02/16 09:04:56;;;;;;;85.90;43.78;;;;;;;6.96;90.55;102518.84;6098184;19;20043;-78
2023/02/16 09:07:06;;;;;;;78.53;40.70;;;;;;;7.01;90.51;102518.88;6099976;19;20378;-77
2023/02/16 09:09:11;;;;;;;80.28;40.08;;;;;;;7.00;89.90;102514.50;6097211;19;20432;-77
2023/02/16 09:11:20;;;;;;;75.03;40.45;;;;;;;7.04;89.87;102521.47;6098187;19;20006;-77
2023/02/16 09:13:25;;;;;;;89.68;40.28;;;;;;;7.02;90.44;102526.69;6092765;19;20010;-76
2023/02/16 09:15:30;;;;;;;77.05;41.83;;;;;;;7.06;89.84;102522.38;6095783;19;20020;-78
2023/02/16 09:17:35;;;;;;;74.30;38.53;;;;;;;7.07;89.97;102521.47;6099588;19;20015;-78
2023/02/16 09:19:43;;;;;;;82.95;42.15;;;;;;;7.06;90.16;102527.59;6094332;19;20028;-77
2023/02/16 09:21:55;;;;;;;85.30;41.47;;;;;;;7.09;90.30;102511.91;6096798;19;20443;-77
2023/02/16 09:24:06;;;;;;;73.95;39.03;;;;;;;7.14;89.85;102518.00;6094614;19;20527;-78
2023/02/16 09:26:11;;;;;;;83.03;41.70;;;;;;;7.13;89.91;102518.00;6098525;19;20035;-78
2023/02/16 09:28:16;;;;;;;74.82;39.08;;;;;;;7.19;89.83;102512.78;6098950;19;20022;-74
2023/02/16 09:30:21;;;;;;;71.45;41.20;;;;;;;7.26;89.78;102519.75;6097540;19;20518;-74
2023/02/16 09:32:30;;;;;;;76.72;38.95;;;;;;;7.38;89.72;102516.28;6098050;19;20428;-74
2023/02/16 09:34:35;;;;;;;85.15;39.10;;;;;;;7.37;89.80;102518.03;6098855;19;20011;-76
2023/02/16 09:36:42;;;;;;;75.50;40.83;;;;;;;7.44;90.11;102522.34;6098361;19;20015;-75
2023/02/16 09:38:49;;;;;;;80.03;40.55;;;;;;;7.44;89.70;102517.13;6097781;19;20086;-75
2023/02/16 09:41:02;;;;;;;82.25;41.15;;;;;;;7.56;89.76;102518.00;6097786;19;20010;-75
2023/02/16 09:43:16;;;;;;;86.53;40.35;;;;;;;7.70;89.45;102516.25;6097897;19;20503;-74
2023/02/16 09:45:23;;;;;;;78.78;42.83;;;;;;;7.74;89.05;102504.91;6096611;19;20020;-75
2023/02/16 09:47:31;;;;;;;75.30;40.70;;;;;;;7.88;89.08;102507.47;6090937;19;20010;-76
2023/02/16 09:49:41;;;;;;;76.20;41.60;;;;;;;7.91;88.77;102499.63;6097031;19;20014;-75
2023/02/16 09:51:51;;;;;;;84.07;41.10;;;;;;;7.84;88.51;102493.50;6096745;19;20061;-76
2023/02/16 09:54:03;;;;;;;87.60;42.78;;;;;;;7.86;88.34;102501.38;6094225;19;20011;-77
2023/02/16 09:56:21;;;;;;;84.78;40.58;;;;;;;7.93;88.46;102497.88;6096917;19;20010;-77
2023/02/16 09:58:31;;;;;;;81.20;41.15;;;;;;;8.01;88.70;102497.84;6092378;19;20197;-80
2023/02/16 10:00:51;;;;;;;78.18;41.28;;;;;;;7.97;88.17;102504.81;6096539;19;20617;-81
2023/02/16 10:03:03;;;;;;;85.22;42.20;;;;;;;7.88;88.31;102497.88;6095388;19;20546;-76
2023/02/16 10:05:21;;;;;;;79.13;42.00;;;;;;;7.95;88.55;102503.09;6074594;19;20022;-77
2023/02/16 10:07:41;;;;;;;78.75;38.47;;;;;;;8.04;88.42;102493.47;6102494;19;19999;-76
2023/02/16 10:09:52;;;;;;;88.53;42.15;;;;;;;8.01;88.13;102498.72;6091020;19;20014;-78
2023/02/16 10:12:03;;;;;;;78.78;40.25;;;;;;;7.98;88.53;102480.41;6098467;19;20022;-76
2023/02/16 10:14:14;;;;;;;;;;;;;;;8.00;88.46;102483.88;6096036;19;20006;-77
2023/02/16 10:16:31;;;;;;;80.13;40.17;;;;;;;7.97;88.40;102483.88;6095343;19;19915;-77
2023/02/16 10:18:41;;;;;;;83.78;40.53;;;;;;;8.05;88.35;102482.09;6094988;19;20090;-77
2023/02/16 10:20:51;;;;;;;84.20;41.65;;;;;;;8.03;88.37;102476.03;6096271;19;20011;-77
2023/02/16 10:23:06;;;;;;;83.95;38.88;;;;;;;8.08;88.28;102476.00;6096610;19;20010;-75
2023/02/16 10:25:19;;;;;;;83.03;40.28;;;;;;;8.10;88.48;102480.34;6094119;19;20019;-76
2023/02/16 10:27:25;;;;;;;79.80;40.27;;;;;;;8.18;88.22;102490.78;6097535;19;20036;-75
2023/02/16 10:29:30;;;;;;;87.78;41.53;;;;;;;8.26;87.68;102485.53;6093763;19;20019;-75
2023/02/16 10:31:42;;;;;;;76.10;39.03;;;;;;;8.17;88.08;102486.44;6095471;19;20028;-75